Historyczne dane pomiarowe

Dodano dane terminowe – wersja testowa.

Dane z okresu 1951-2019

Wersja bazy: 1.34 [2019-03-16, lista zmian], aktualizacja planowana na 2019-04-15

Dane meteo z obszaru Polski uzyskane na podstawie danych udostępnionych przez Instytut Meteorologii i Gospodarki Wodnej – Państwowy Instytut Badawczy.

 

Wybierz Datę:    

       

TemperaturaWilgotnośćWiatrCiśnienieOpadyŚniegCzas trwania zjawisk
 Stacja t tx tn tng RH VA  wxwx mslp ppp RRR   cm mm wxwxwxwxwxwxwx
1987-08-14 13.2 18.2 7.5 5.4 83.3- 6.0 2.3---- 5.0------------
1987-08-13 13.2 19.3 4.9 3.4 74.5- 2.3 1.0---- 0.0------------
1987-08-12 12.4 17.6 6.4 3.0 83.0- 3.0 1.7---- 0.5------------
1987-08-11 13.2 18.1 10.2 7.2 84.3- 4.0 3.3---- 0.3------------
1987-08-10 15.4 19.8 12.9 11.9 85.3- 5.3 3.3---- 1.8------------
1987-08-09 17.8 24.2 9.4 6.3 69.0- 5.3 2.3---- 2.6------------
1987-08-08 14.4 20.8 7.9 4.6 76.3- 3.7 1.0---- 0.0------------
1987-08-07 10.2 15.1 4.8 1.8 89.0- 5.7 1.3---- 4.7------------
1987-08-06 10.1 15.8 7.6 5.1 87.5- 5.0 3.7---- 1.0------------
1987-08-05 11.7 18.3 7.1 5.7 84.5- 5.3 2.0---- 3.0------------
1987-08-04 14.8 19.0 13.3 12.7 88.5- 6.7 2.3---- 2.3------------
1987-08-03 14.6 19.6 9.5 6.7 83.3- 7.3 2.0---- 0.0------------
1987-08-02 14.7 19.6 11.4 11.2 79.5- 6.7 2.7---- 2.6------------
1987-08-01 15.1 20.7 10.5 9.7 83.3- 7.0 2.0---- 2.8------------
1987-07-31 15.6 21.4 13.1 13.1 88.0- 7.7 2.0---- 5.8------------
1987-07-30 18.6 24.1 10.7 7.9 77.0- 2.0 1.7---- 4.2------------
1987-07-29 14.6 19.8 10.1 9.3 79.5- 7.0 1.7---- 0.0------------
1987-07-28 13.1 15.4 12.0 11.5 90.3- 6.3 2.7---- 2.4------------
1987-07-27 11.5 16.7 6.9 4.8 82.8- 7.3 2.7---- 0.8------------
1987-07-26 12.1 17.3 10.1 10.1 96.8- 8.0 1.0---- 10.2------------
1987-07-25 17.8 24.0 14.5 12.4 89.3- 6.7 2.7---- 10.0------------
1987-07-24 20.4 27.3 16.8 14.0 82.8- 4.7 2.3---- 1.6------------
1987-07-23 20.6 27.5 12.6 10.5 78.5- 3.7 1.0---- 0.4------------
1987-07-22 19.2 24.3 16.1 15.8 87.5- 4.7 1.0---- 0.0------------
1987-07-21 20.0 25.4 14.4 12.0 82.0- 6.3 2.3---- 2.5------------
1987-07-20 19.3 22.8 16.4 16.3 86.8- 5.0 2.3---- 0.0------------
1987-07-19 22.2 25.9 19.4 18.6 84.8- 4.3 1.3---- 23.0------------
1987-07-18 24.7 30.0 18.1 16.6 79.5- 5.3 3.3---- 3.6------------
1987-07-17 23.1 30.0 18.5 16.4 83.0- 6.7 4.0---- 0.1------------
1987-07-16 21.0 27.1 14.7 13.3 72.3- 5.3 1.3---- 5.9------------
1987-07-15 18.0 23.7 11.4 9.4 71.8- 1.0 3.7---- 0.0------------
1987-07-14 16.5 21.7 7.8 5.9 72.0- 2.0 1.3---- 0.0------------
1987-07-13 18.8 23.0 14.3 12.4 71.5- 5.0 2.3---- 0.0------------
1987-07-12 20.4 28.7 12.9 11.0 78.5- 4.7 3.7---- 10.3------------
1987-07-11 16.5 25.0 7.8 5.9 67.8- 1.3 2.7---- 0.0------------
1987-07-10 15.1 19.8 9.3 6.6 65.3- 2.7 2.3---- 0.0------------
1987-07-09 17.2 24.3 13.7 13.7 96.0- 8.0 3.0---- 7.4------------
1987-07-08 21.8 28.7 14.2 9.9 63.0- 1.7 1.7---- 0.3------------
1987-07-07 21.0 27.8 11.5 7.9 56.8- 0.0 1.3---- 0.0------------
1987-07-06 19.0 24.5 9.9 6.2 53.8- 1.0 2.3---- 0.0------------
1987-07-05 16.6 20.7 12.6 8.1 71.8- 4.7 1.7---- 0.0------------
1987-07-04 20.2 25.2 14.2 13.5 64.0- 3.0 2.0---- 0.0------------
1987-07-03 18.1 21.7 15.3 14.2 83.8- 8.0 2.0---- 0.0------------
1987-07-02 18.4 26.7 15.1 15.1 89.8- 8.0 2.7---- 0.5------------
1987-07-01 24.8 30.6 18.0 15.6 71.8- 0.0 1.7---- 0.0------------
1987-06-30 24.2 30.6 16.2 14.4 73.3- 1.3 1.0---- 0.0------------
1987-06-29 21.1 26.5 14.1 12.3 76.8- 2.0 1.0---- 0.0------------
1987-06-28 18.5 25.5 10.7 8.4 79.0- 4.0 3.0---- 0.0------------
1987-06-27 17.3 21.0 15.2 14.8 89.8- 7.7 2.3---- 0.0------------
1987-06-26 17.0 24.9 9.1 5.8 71.0- 5.7 2.0---- 11.7------------
1987-06-25 15.3 18.1 13.1 11.3 77.0- 4.7 3.3---- 0.0------------
1987-06-24 16.3 21.0 12.3 10.6 73.5- 5.7 3.7---- 0.6------------
1987-06-23 15.9 21.1 12.4 12.3 79.0- 5.7 1.7---- 0.0------------
1987-06-22 13.6 22.9 11.1 9.7 85.5- 6.3 1.7---- 20.2------------
1987-06-21 18.5 24.5 8.9 5.8 65.0- 4.0 2.0---- 0.0------------
1987-06-20 15.9 21.5 9.5 5.4 67.0- 5.3 2.7---- 0.0------------
1987-06-19 13.3 18.0 7.7 4.8 69.8- 3.0 2.0---- 0.0------------
1987-06-18 10.9 14.9 7.1 4.4 82.0- 5.0 4.3---- 0.2------------
1987-06-17 11.9 15.7 8.0 6.2 71.3- 4.7 2.7---- 0.0------------
1987-06-16 13.5 22.2 9.7 9.6 88.3- 7.7 3.7---- 5.6------------
535.4 ms

 

Źródłem pochodzenia danych jest Instytut Meteorologii i Gospodarki Wodnej – Państwowy Instytut Badawczy. Dane Instytutu Meteorologii i Gospodarki Wodnej – Państwowego Instytutu Badawczego zostały przetworzone.

Dane źródłowe można odnaleźć na stronie https://dane.imgw.pl